createdAt,value
2023-03-16T04:47:04.087Z,1.00
2023-03-16T04:50:10.754Z,1.00
2023-03-16T04:53:13.776Z,1.12
2023-03-16T04:56:19.997Z,1.13
2023-03-16T04:59:24.150Z,1.18
2023-03-16T05:02:27.924Z,1.31
2023-03-16T05:05:31.289Z,1.36
2023-03-16T05:08:34.482Z,1.42
2023-03-16T05:11:37.814Z,1.36
2023-03-16T05:14:41.535Z,1.45
2023-03-16T05:17:44.624Z,1.49
2023-03-16T05:20:56.082Z,1.59
2023-03-16T05:23:59.906Z,1.64
2023-03-16T05:27:03.234Z,1.62
2023-03-16T05:30:06.873Z,1.63
2023-03-16T05:33:10.857Z,1.84
2023-03-16T05:36:13.977Z,1.92
2023-03-16T05:39:17.764Z,1.96
2023-03-16T05:42:21.212Z,2.06
2023-03-16T05:45:24.787Z,2.20
2023-03-16T05:48:28.478Z,2.30
2023-03-16T05:51:32.581Z,2.43
2023-03-16T05:54:36.037Z,2.59
2023-03-16T05:57:39.157Z,2.74
2023-03-16T06:00:42.070Z,2.86
2023-03-16T06:03:47.365Z,2.89
2023-03-16T06:06:51.231Z,3.04
2023-03-16T06:09:54.831Z,3.17
2023-03-16T06:12:59.819Z,3.51
2023-03-16T06:16:06.639Z,4.26
2023-03-16T06:19:10.687Z,5.45
2023-03-16T06:22:14.568Z,5.81
2023-03-16T06:25:17.939Z,5.27
2023-03-16T06:28:22.802Z,4.80
2023-03-16T06:31:25.974Z,4.58
2023-03-16T06:34:31.936Z,4.60
2023-03-16T06:37:34.725Z,4.52
2023-03-16T06:40:38.184Z,4.48
2023-03-16T06:43:42.537Z,4.64
2023-03-16T06:46:45.884Z,4.88
2023-03-16T06:49:48.825Z,4.93
2023-03-16T06:52:52.143Z,5.02
2023-03-16T06:55:55.049Z,4.99
2023-03-16T06:58:58.312Z,4.97
2023-03-16T07:02:02.025Z,5.09
2023-03-16T07:05:07.405Z,5.03
2023-03-16T07:08:10.379Z,5.01
2023-03-16T07:11:14.894Z,5.19
2023-03-16T07:14:19.656Z,5.28
2023-03-16T07:17:24.379Z,5.39
2023-03-16T07:20:29.103Z,5.58
2023-03-16T07:23:36.042Z,5.68
2023-03-16T07:26:39.136Z,5.83
2023-03-16T07:29:43.414Z,5.73
2023-03-16T07:32:46.152Z,5.84
2023-03-16T07:35:50.098Z,5.97
2023-03-16T07:38:53.185Z,6.27
2023-03-16T07:41:56.206Z,6.28
2023-03-16T07:45:05.831Z,6.50
2023-03-16T07:48:09.176Z,6.56
2023-03-16T07:51:15.536Z,6.67
2023-03-16T07:54:20.886Z,6.92
2023-03-16T07:57:23.546Z,6.96
2023-03-16T08:00:27.133Z,6.91
2023-03-16T08:03:32.395Z,6.84
2023-03-16T08:06:35.227Z,6.83
2023-03-16T08:09:38.744Z,6.79
2023-03-16T08:12:41.967Z,6.83
2023-03-16T08:15:50.444Z,7.07
2023-03-16T08:18:57.132Z,7.24
2023-03-16T08:22:03.682Z,7.45
2023-03-16T08:25:12.316Z,7.59
2023-03-16T08:28:17.135Z,7.80
2023-03-16T08:31:21.537Z,7.84
2023-03-16T08:34:25.447Z,7.64
2023-03-16T08:37:28.493Z,7.42
2023-03-16T08:40:34.878Z,7.50
2023-03-16T08:43:37.791Z,7.56
2023-03-16T08:46:42.494Z,7.65
2023-03-16T08:49:49.259Z,7.96
2023-03-16T08:52:52.293Z,7.88
2023-03-16T08:56:04.706Z,8.13
2023-03-16T08:59:10.477Z,8.10
2023-03-16T09:02:20.753Z,8.05
2023-03-16T09:05:25.464Z,8.17
2023-03-16T09:08:28.692Z,8.26
2023-03-16T09:11:34.619Z,8.26
2023-03-16T09:14:38.659Z,8.26
2023-03-16T09:17:43.169Z,8.22
2023-03-16T09:20:47.905Z,8.36
2023-03-16T09:23:50.995Z,8.33
2023-03-16T09:26:54.004Z,8.44
2023-03-16T09:29:59.520Z,8.51
2023-03-16T09:33:02.285Z,8.39
2023-03-16T09:36:05.711Z,8.32
2023-03-16T09:39:08.900Z,8.36
2023-03-16T09:42:18.303Z,8.47
2023-03-16T09:45:32.223Z,8.82
2023-03-16T09:48:38.165Z,8.82
2023-03-16T09:52:06.404Z,8.78
2023-03-16T09:55:37.837Z,9.06
2023-03-16T09:58:41.101Z,9.13
2023-03-16T10:02:23.134Z,9.00
2023-03-16T10:05:27.472Z,9.17
2023-03-16T10:08:39.437Z,9.31
2023-03-16T10:11:48.581Z,9.43
2023-03-16T10:15:10.349Z,9.42
2023-03-16T10:18:20.456Z,9.56
2023-03-16T10:21:24.672Z,9.44
2023-03-16T10:24:56.784Z,9.59
2023-03-16T10:27:59.617Z,9.70
2023-03-16T10:31:03.545Z,9.44
2023-03-16T10:34:06.967Z,9.68
2023-03-16T10:37:13.918Z,9.76
2023-03-16T10:40:16.805Z,9.62
2023-03-16T10:43:20.417Z,9.63
2023-03-16T10:46:28.162Z,9.96
2023-03-16T10:49:44.508Z,9.90
2023-03-16T10:52:49.670Z,9.66
2023-03-16T10:55:59.157Z,10.17
2023-03-16T10:59:13.162Z,10.12
2023-03-16T11:02:20.788Z,10.39
2023-03-16T11:05:23.965Z,10.47
2023-03-16T11:08:32.608Z,10.88
2023-03-16T11:11:36.436Z,11.23
2023-03-16T11:14:49.232Z,11.26
2023-03-16T11:17:53.656Z,11.72
2023-03-16T11:21:03.577Z,11.56
2023-03-16T11:24:24.352Z,11.49
2023-03-16T11:27:39.648Z,11.78
2023-03-16T11:30:48.750Z,11.70
2023-03-16T11:33:54.385Z,12.00
2023-03-16T11:37:10.763Z,13.13
2023-03-16T11:40:43.027Z,14.34
2023-03-16T11:44:13.100Z,14.39
2023-03-16T11:47:26.997Z,14.21
2023-03-16T11:50:49.939Z,15.33
2023-03-16T11:54:18.758Z,16.23
2023-03-16T11:57:52.475Z,16.56
2023-03-16T12:01:21.010Z,17.55
2023-03-16T12:04:45.152Z,18.90
2023-03-16T12:08:19.549Z,20.01
2023-03-16T12:11:32.361Z,21.19
2023-03-16T12:14:46.954Z,20.95
2023-03-16T12:17:54.065Z,21.20
2023-03-16T12:21:02.831Z,21.88
2023-03-16T12:24:12.277Z,22.02
2023-03-16T12:27:21.140Z,22.98
2023-03-16T12:31:12.396Z,23.52
2023-03-16T12:34:30.093Z,25.59
2023-03-16T12:37:55.258Z,25.78
2023-03-16T12:41:17.935Z,27.46
2023-03-16T12:44:46.133Z,25.69
2023-03-16T12:48:08.917Z,24.72
2023-03-16T12:51:12.586Z,24.12
2023-03-16T12:54:24.035Z,24.24
2023-03-16T12:57:27.271Z,24.24
2023-03-16T13:00:41.476Z,23.73
2023-03-16T13:03:48.272Z,22.67
2023-03-16T13:07:01.964Z,19.19
2023-03-16T13:10:17.229Z,21.12
2023-03-16T13:13:25.482Z,24.36
2023-03-16T13:16:33.210Z,23.45
2023-03-16T13:19:37.747Z,25.88
2023-03-16T13:23:07.485Z,26.04
2023-03-16T13:26:23.702Z,27.35
2023-03-16T13:29:32.023Z,26.77
2023-03-16T13:32:36.091Z,27.03
2023-03-16T13:35:39.624Z,27.28
2023-03-16T13:38:42.426Z,23.88
2023-03-16T13:42:14.553Z,24.00
2023-03-16T13:45:23.893Z,22.36
2023-03-16T13:48:26.856Z,22.56
2023-03-16T13:51:34.294Z,22.70
2023-03-16T13:54:37.577Z,21.40
2023-03-16T13:57:42.154Z,20.63
2023-03-16T14:00:45.870Z,20.09
2023-03-16T14:03:49.340Z,19.70
2023-03-16T14:06:59.363Z,18.86
2023-03-16T14:10:05.285Z,17.06
2023-03-16T14:13:24.113Z,14.64
2023-03-16T14:16:28.999Z,14.41
2023-03-16T14:19:42.484Z,13.90
2023-03-16T14:22:45.524Z,14.44
2023-03-16T14:25:49.697Z,14.09
2023-03-16T14:28:57.482Z,12.93
2023-03-16T14:32:00.529Z,12.84
2023-03-16T14:35:20.235Z,11.89
2023-03-16T14:38:29.112Z,11.63
2023-03-16T14:41:33.439Z,11.08
2023-03-16T14:44:38.620Z,10.79
2023-03-16T14:47:44.500Z,10.71
2023-03-16T14:50:54.660Z,10.66
2023-03-16T14:53:57.892Z,10.47
2023-03-16T14:57:03.866Z,10.24
2023-03-16T15:00:10.240Z,10.09
2023-03-16T15:03:17.440Z,9.93
2023-03-16T15:06:21.666Z,9.79
2023-03-16T15:09:34.405Z,9.54
2023-03-16T15:12:38.054Z,9.57
2023-03-16T15:15:42.981Z,9.56
2023-03-16T15:18:46.604Z,9.29
2023-03-16T15:21:49.404Z,9.24
2023-03-16T15:24:52.615Z,9.36
2023-03-16T15:27:55.574Z,9.25
2023-03-16T15:31:00.765Z,9.12
2023-03-16T15:34:03.508Z,9.01
2023-03-16T15:37:06.761Z,8.93
2023-03-16T15:40:19.322Z,8.89
2023-03-16T15:43:24.684Z,8.89
2023-03-16T15:46:28.227Z,8.94
2023-03-16T15:49:37.764Z,8.77
2023-03-16T15:52:52.171Z,8.84
2023-03-16T15:56:08.884Z,8.75
2023-03-16T15:59:17.010Z,8.74
2023-03-16T16:02:29.581Z,8.68
2023-03-16T16:05:33.203Z,8.57
2023-03-16T16:08:35.975Z,8.53
2023-03-16T16:11:40.264Z,8.44
2023-03-16T16:14:43.149Z,8.29
2023-03-16T16:18:01.901Z,8.25
2023-03-16T16:21:15.928Z,8.24
2023-03-16T16:24:19.313Z,8.15
2023-03-16T16:27:22.038Z,8.21
2023-03-16T16:30:28.509Z,8.13
2023-03-16T16:33:33.924Z,8.06
2023-03-16T16:36:36.891Z,7.87
2023-03-16T16:39:40.557Z,7.82
2023-03-16T16:42:45.178Z,7.73
2023-03-16T16:45:48.946Z,7.73
2023-03-16T16:48:58.906Z,7.65
2023-03-16T16:52:02.368Z,7.52
2023-03-16T16:55:05.731Z,7.48
2023-03-16T16:58:18.513Z,7.43
